Time;durP1;ratioP1;P1;durP2;ratioP2;P2;SDS_P1;SDS_P2;PMS_P1;PMS_P2;Temp;Humidity;BMP_temperature;BMP_pressure;BME280_temperature;BME280_humidity;BME280_pressure;Samples;Min_cycle;Max_cycle;Signal;HPM_P1;HPM_P2
2023/07/04 00:01:23;;;;;;;3.28;2.65;;;19.30;99.90;;;;;;5040767;28;20407;-85
2023/07/04 00:03:56;;;;;;;2.88;1.92;;;19.40;99.90;;;;;;5037114;28;20406;-85
2023/07/04 00:06:23;;;;;;;2.90;2.42;;;19.40;99.90;;;;;;5036689;28;20394;-85
2023/07/04 00:08:50;;;;;;;2.85;2.28;;;19.40;99.90;;;;;;5036656;28;20394;-86
2023/07/04 00:11:16;;;;;;;2.45;2.10;;;19.30;99.90;;;;;;5022581;28;20777;-85
2023/07/04 00:13:42;;;;;;;2.80;2.17;;;19.30;99.90;;;;;;5019267;28;20408;-85
2023/07/04 00:16:10;;;;;;;3.93;1.97;;;19.50;99.90;;;;;;5024182;28;20412;-86
2023/07/04 00:18:39;;;;;;;3.00;2.40;;;19.40;99.90;;;;;;5019571;28;20391;-85
2023/07/04 00:21:07;;;;;;;3.60;2.40;;;19.40;99.90;;;;;;5028147;28;20429;-85
2023/07/04 00:23:35;;;;;;;3.10;1.90;;;19.50;99.90;;;;;;5033032;28;20428;-85
2023/07/04 00:26:02;;;;;;;2.80;1.90;;;19.40;99.90;;;;;;5012216;28;20416;-86
2023/07/04 00:28:28;;;;;;;2.00;1.70;;;19.00;99.90;;;;;;5014918;28;20476;-85
2023/07/04 00:30:55;;;;;;;2.33;1.95;;;19.40;99.90;;;;;;5014883;28;20416;-85
2023/07/04 00:33:22;;;;;;;2.80;1.90;;;19.50;99.90;;;;;;5014751;28;20422;-85
2023/07/04 00:35:48;;;;;;;2.83;1.70;;;19.50;99.90;;;;;;5023630;28;20843;-85
2023/07/04 00:38:15;;;;;;;3.20;1.60;;;19.50;99.90;;;;;;5028273;28;20436;-86
2023/07/04 00:40:41;;;;;;;2.75;1.75;;;19.50;99.90;;;;;;5017621;28;20467;-85
2023/07/04 00:43:16;;;;;;;3.22;1.85;;;19.50;99.90;;;;;;5014384;28;20973;-85
2023/07/04 00:45:44;;;;;;;1.90;1.70;;;19.50;99.90;;;;;;5014881;28;20459;-85
2023/07/04 00:48:13;;;;;;;2.47;1.60;;;19.50;99.90;;;;;;5014192;28;20918;-85
2023/07/04 00:50:45;;;;;;;2.70;1.70;;;19.50;99.90;;;;;;5013402;28;20906;-85
2023/07/04 00:53:13;;;;;;;1.83;1.70;;;20.40;99.90;;;;;;5049060;28;20405;-86
2023/07/04 00:55:43;;;;;;;2.72;1.40;;;19.60;99.90;;;;;;5049960;28;20793;-85
2023/07/04 00:58:09;;;;;;;1.52;1.42;;;19.60;99.90;;;;;;5044536;28;20441;-85
2023/07/04 01:00:37;;;;;;;1.50;1.40;;;19.60;99.90;;;;;;5035722;28;20777;-85
2023/07/04 01:03:14;;;;;;;1.80;1.40;;;19.60;99.90;;;;;;5036227;28;20406;-85
2023/07/04 01:05:48;;;;;;;2.00;1.70;;;19.60;99.90;;;;;;5016078;28;20962;-85
2023/07/04 01:08:26;;;;;;;2.00;1.80;;;19.50;99.90;;;;;;5015854;28;20393;-86
2023/07/04 01:10:53;;;;;;;2.10;1.57;;;19.60;99.90;;;;;;5020906;28;20460;-85
2023/07/04 01:13:35;;;;;;;1.50;1.40;;;19.70;99.90;;;;;;5035645;28;20386;-85
2023/07/04 01:16:06;;;;;;;2.17;1.50;;;19.60;99.90;;;;;;5013096;28;20815;-85
2023/07/04 01:18:32;;;;;;;2.10;1.70;;;19.60;99.90;;;;;;5013881;28;20408;-85
2023/07/04 01:21:00;;;;;;;2.70;1.90;;;19.50;99.90;;;;;;5019498;28;20395;-85
2023/07/04 01:24:11;;;;;;;2.10;1.50;;;19.60;99.90;;;;;;5031979;28;20477;-85
2023/07/04 01:26:43;;;;;;;4.10;1.90;;;19.60;99.90;;;;;;5030954;28;20924;-85
2023/07/04 01:29:12;;;;;;;1.35;1.25;;;19.50;99.90;;;;;;5035313;28;20458;-85
2023/07/04 01:31:40;;;;;;;1.52;1.40;;;19.50;99.90;;;;;;5026850;28;20828;-85
2023/07/04 01:34:08;;;;;;;3.88;1.48;;;19.50;99.90;;;;;;5012129;28;20400;-85
2023/07/04 01:36:37;;;;;;;1.60;1.50;;;17.90;99.90;;;;;;5010665;28;20420;-85
2023/07/04 01:39:04;;;;;;;1.90;1.42;;;19.10;99.90;;;;;;5013246;28;20420;-85
2023/07/04 01:41:30;;;;;;;2.60;1.30;;;19.20;99.90;;;;;;5010589;28;20397;-86
2023/07/04 01:44:00;;;;;;;1.85;1.50;;;18.70;99.90;;;;;;5011247;28;20472;-86
2023/07/04 01:46:26;;;;;;;1.50;1.25;;;19.00;99.90;;;;;;5010264;28;20408;-86
2023/07/04 01:48:51;;;;;;;1.70;1.60;;;18.80;99.90;;;;;;5011739;28;20503;-85
2023/07/04 01:51:27;;;;;;;1.97;1.50;;;18.60;99.90;;;;;;5018845;28;20430;-85
2023/07/04 01:53:52;;;;;;;2.83;1.92;;;18.50;99.90;;;;;;5034518;28;21145;-85
2023/07/04 01:56:18;;;;;;;2.08;1.70;;;18.40;99.90;;;;;;5033765;28;20406;-85
2023/07/04 01:58:43;;;;;;;1.70;1.50;;;18.30;99.90;;;;;;5032091;28;20425;-85
2023/07/04 02:01:09;;;;;;;2.25;1.65;;;18.20;99.90;;;;;;5029660;28;20403;-85
2023/07/04 02:03:36;;;;;;;2.50;1.70;;;17.20;99.90;;;;;;5014370;28;20642;-84
2023/07/04 02:06:01;;;;;;;1.80;1.70;;;18.20;99.90;;;;;;5012084;28;20389;-85
2023/07/04 02:08:27;;;;;;;2.10;1.90;;;18.00;99.90;;;;;;5011332;28;20824;-85
2023/07/04 02:10:53;;;;;;;2.20;1.70;;;17.90;99.90;;;;;;5015325;28;20385;-85
2023/07/04 02:13:18;;;;;;;3.30;2.00;;;17.90;99.90;;;;;;5031843;28;20478;-85
2023/07/04 02:15:44;;;;;;;1.77;1.67;;;17.90;99.90;;;;;;5031580;28;20991;-85
2023/07/04 02:18:09;;;;;;;3.00;2.30;;;17.80;99.90;;;;;;5035065;28;20390;-85
2023/07/04 02:20:35;;;;;;;2.22;1.80;;;17.60;99.90;;;;;;5055078;22;20433;-76
2023/07/04 02:23:00;;;;;;;4.70;2.00;;;17.70;99.90;;;;;;5048863;28;20391;-77
2023/07/04 02:25:26;;;;;;;2.50;1.83;;;17.60;99.90;;;;;;5050511;28;20396;-76
2023/07/04 02:27:51;;;;;;;2.10;1.90;;;17.60;99.90;;;;;;5068567;28;20561;-77
2023/07/04 02:30:17;;;;;;;3.30;2.00;;;17.60;99.90;;;;;;5061766;28;20477;-77
2023/07/04 02:32:43;;;;;;;4.20;2.30;;;17.50;99.90;;;;;;5050264;28;20421;-76
2023/07/04 02:35:08;;;;;;;2.37;2.03;;;17.50;99.90;;;;;;5050081;28;20496;-76
2023/07/04 02:37:34;;;;;;;2.72;1.90;;;17.40;99.90;;;;;;5039458;28;20461;-76
2023/07/04 02:40:00;;;;;;;2.70;2.50;;;17.40;99.90;;;;;;5028365;28;20999;-77
2023/07/04 02:42:25;;;;;;;2.80;2.40;;;17.40;99.90;;;;;;5029837;28;20456;-77
2023/07/04 02:44:51;;;;;;;4.97;3.40;;;17.20;99.90;;;;;;5029000;28;20445;-77
2023/07/04 02:47:18;;;;;;;3.90;3.50;;;17.10;99.90;;;;;;5027985;28;20437;-77
2023/07/04 02:49:43;;;;;;;4.20;3.73;;;17.20;99.90;;;;;;5029908;28;20968;-77
2023/07/04 02:52:09;;;;;;;5.60;3.43;;;17.20;99.90;;;;;;5030002;28;20426;-77
2023/07/04 02:54:35;;;;;;;3.70;3.05;;;17.20;99.90;;;;;;5029866;28;20765;-77
2023/07/04 02:57:00;;;;;;;2.95;2.65;;;17.10;99.90;;;;;;5028928;28;20886;-77
2023/07/04 02:59:26;;;;;;;3.50;2.60;;;17.20;99.90;;;;;;5029969;28;20395;-77
2023/07/04 03:01:53;;;;;;;2.60;2.30;;;17.10;99.90;;;;;;5029897;28;20501;-77
2023/07/04 03:04:19;;;;;;;2.58;2.20;;;17.10;99.90;;;;;;5029711;28;20383;-77
2023/07/04 03:06:45;;;;;;;2.57;2.37;;;17.10;99.90;;;;;;5028788;28;20790;-77
2023/07/04 03:09:10;;;;;;;2.40;2.20;;;17.10;99.90;;;;;;5039211;28;20428;-77
2023/07/04 03:11:36;;;;;;;3.25;2.38;;;17.10;99.90;;;;;;5041150;28;20387;-77
2023/07/04 03:14:01;;;;;;;2.83;2.30;;;17.00;99.90;;;;;;5028351;28;20399;-77
2023/07/04 03:16:27;;;;;;;2.80;2.60;;;17.00;99.90;;;;;;5029049;28;20406;-77
2023/07/04 03:18:52;;;;;;;3.10;2.80;;;17.10;99.90;;;;;;5029576;28;20921;-77
2023/07/04 03:21:18;;;;;;;3.20;2.70;;;17.00;99.90;;;;;;5028931;28;20432;-77
2023/07/04 03:23:43;;;;;;;2.60;2.28;;;16.90;99.90;;;;;;5030302;28;20419;-78
2023/07/04 03:26:09;;;;;;;3.23;2.93;;;16.90;99.90;;;;;;5031794;28;20383;-77
2023/07/04 03:28:35;;;;;;;4.50;2.57;;;15.60;99.90;;;;;;5032888;28;20395;-77
2023/07/04 03:31:00;;;;;;;2.70;2.50;;;16.90;99.90;;;;;;5033893;28;20409;-77
2023/07/04 03:33:26;;;;;;;5.40;2.80;;;16.90;99.90;;;;;;5033951;28;20521;-78
2023/07/04 03:35:51;;;;;;;3.35;3.00;;;16.90;99.90;;;;;;5031843;28;20909;-78
2023/07/04 03:38:17;;;;;;;3.37;2.77;;;16.90;99.90;;;;;;5035042;28;20522;-77
2023/07/04 03:40:43;;;;;;;3.10;2.60;;;16.80;99.90;;;;;;5035734;28;20387;-78
2023/07/04 03:43:08;;;;;;;3.05;2.75;;;16.90;99.90;;;;;;5033729;28;20393;-77
2023/07/04 03:45:34;;;;;;;3.05;2.75;;;16.90;99.90;;;;;;5042416;28;20959;-77
2023/07/04 03:47:59;;;;;;;2.73;2.50;;;16.90;99.90;;;;;;5051956;28;20403;-77
2023/07/04 03:50:25;;;;;;;2.67;2.47;;;16.80;99.90;;;;;;5053136;28;20508;-77
2023/07/04 03:52:50;;;;;;;2.97;2.40;;;16.80;99.90;;;;;;5037118;28;20816;-77
2023/07/04 03:55:16;;;;;;;2.80;2.60;;;16.90;99.90;;;;;;5032492;28;20892;-77
2023/07/04 03:57:42;;;;;;;4.55;2.60;;;16.80;99.90;;;;;;5032681;28;20395;-77
2023/07/04 04:00:11;;;;;;;2.63;2.42;;;16.80;99.90;;;;;;5032966;28;20444;-77
2023/07/04 04:02:36;;;;;;;4.40;2.47;;;16.90;99.90;;;;;;5045015;28;20894;-77
2023/07/04 04:05:02;;;;;;;2.83;2.63;;;16.80;99.90;;;;;;5051530;28;20397;-77
2023/07/04 04:07:28;;;;;;;2.97;2.20;;;16.80;99.90;;;;;;5052105;28;20400;-77
2023/07/04 04:09:53;;;;;;;3.10;2.65;;;16.90;99.90;;;;;;5052596;28;20382;-77
2023/07/04 04:12:19;;;;;;;2.60;2.40;;;16.90;99.90;;;;;;5047041;28;20539;-77
2023/07/04 04:14:44;;;;;;;2.80;2.60;;;16.80;99.90;;;;;;5052593;28;20400;-78
2023/07/04 04:17:10;;;;;;;3.80;2.60;;;16.90;99.90;;;;;;5052010;28;20774;-77
2023/07/04 04:19:36;;;;;;;4.15;2.70;;;16.90;99.90;;;;;;5048098;28;20402;-77
2023/07/04 04:22:02;;;;;;;3.00;2.70;;;16.90;99.90;;;;;;5032928;28;20749;-77
2023/07/04 04:24:27;;;;;;;2.67;2.47;;;16.90;99.90;;;;;;5030914;28;20387;-77
2023/07/04 04:26:53;;;;;;;3.40;2.90;;;16.90;99.90;;;;;;5031886;28;20395;-77
2023/07/04 04:29:20;;;;;;;2.85;2.55;;;16.90;99.90;;;;;;5033196;28;20387;-77
2023/07/04 04:31:46;;;;;;;2.70;2.50;;;16.90;99.90;;;;;;5032986;28;20773;-77
2023/07/04 04:34:12;;;;;;;2.60;2.40;;;16.90;99.90;;;;;;5032470;28;20402;-77
2023/07/04 04:36:38;;;;;;;2.77;2.57;;;17.00;99.90;;;;;;5031220;28;20409;-77
2023/07/04 04:39:04;;;;;;;4.10;2.80;;;16.90;99.90;;;;;;5049055;28;20971;-77
2023/07/04 04:41:30;;;;;;;3.92;2.90;;;16.90;99.90;;;;;;5052375;28;20765;-78
2023/07/04 04:43:57;;;;;;;3.00;2.50;;;16.90;99.90;;;;;;5052149;28;20384;-77
2023/07/04 04:46:23;;;;;;;5.40;2.70;;;16.80;99.90;;;;;;5051462;28;21037;-78
2023/07/04 04:48:49;;;;;;;8.63;3.00;;;16.90;99.90;;;;;;5036186;28;20399;-77
2023/07/04 04:51:15;;;;;;;3.70;2.45;;;16.90;99.90;;;;;;5031104;28;20405;-78
2023/07/04 04:53:44;;;;;;;4.13;2.70;;;16.90;99.90;;;;;;5049876;28;20390;-78
2023/07/04 04:56:11;;;;;;;4.43;2.63;;;17.00;99.90;;;;;;5051607;28;20408;-78
2023/07/04 04:58:37;;;;;;;2.80;2.60;;;16.90;99.90;;;;;;5052461;28;20496;-78
2023/07/04 05:01:10;;;;;;;3.15;2.70;;;17.00;99.90;;;;;;5052026;28;20905;-78
2023/07/04 05:03:36;;;;;;;2.97;2.67;;;16.20;99.90;;;;;;5034088;28;20391;-78
2023/07/04 05:06:03;;;;;;;3.30;2.53;;;17.00;99.90;;;;;;5029946;28;20395;-77
2023/07/04 05:08:28;;;;;;;2.50;2.30;;;17.10;99.90;;;;;;5030492;28;20802;-77
2023/07/04 05:11:04;;;;;;;2.80;2.50;;;17.20;99.90;;;;;;5030699;28;20483;-78
2023/07/04 05:13:33;;;;;;;3.03;2.83;;;17.20;99.90;;;;;;5032114;28;20399;-77
2023/07/04 05:16:00;;;;;;;3.50;2.67;;;17.20;99.90;;;;;;5030441;28;20477;-77
2023/07/04 05:18:26;;;;;;;2.77;2.57;;;17.30;99.90;;;;;;5038566;28;20394;-77
2023/07/04 05:21:05;;;;;;;2.83;2.22;;;17.30;99.90;;;;;;5051737;28;20386;-77
2023/07/04 05:23:32;;;;;;;2.58;2.38;;;17.40;99.90;;;;;;5052037;28;20385;-78
2023/07/04 05:26:05;;;;;;;2.70;2.50;;;17.40;99.90;;;;;;5050267;28;20389;-77
2023/07/04 05:28:31;;;;;;;2.38;2.17;;;17.40;99.90;;;;;;5039286;28;20403;-77
2023/07/04 05:31:03;;;;;;;2.53;2.30;;;17.40;99.90;;;;;;5031050;28;20387;-78
2023/07/04 05:33:29;;;;;;;4.13;2.30;;;17.50;99.90;;;;;;5028974;28;20399;-78
2023/07/04 05:36:07;;;;;;;2.65;2.45;;;17.50;99.90;;;;;;5031019;28;20403;-78
2023/07/04 05:38:34;;;;;;;3.35;2.10;;;17.50;99.90;;;;;;5031956;28;20962;-78
2023/07/04 05:41:00;;;;;;;2.00;1.90;;;17.60;99.90;;;;;;5030812;28;20869;-78
2023/07/04 05:43:26;;;;;;;4.30;2.35;;;17.50;99.90;;;;;;5031053;28;20390;-78
2023/07/04 05:45:53;;;;;;;2.60;2.33;;;17.50;99.90;;;;;;5041570;28;20397;-78
2023/07/04 05:48:19;;;;;;;2.30;2.10;;;17.50;99.90;;;;;;5051746;28;20381;-78
2023/07/04 05:51:12;;;;;;;2.70;2.50;;;17.60;99.90;;;;;;5049954;28;20397;-78
2023/07/04 05:53:40;;;;;;;3.03;2.30;;;17.60;99.90;;;;;;5046742;28;20466;-78
2023/07/04 05:56:08;;;;;;;2.63;2.43;;;17.50;99.90;;;;;;5043220;28;20749;-79
2023/07/04 05:58:35;;;;;;;2.28;2.00;;;17.70;99.90;;;;;;5051936;28;20479;-78
2023/07/04 06:01:34;;;;;;;2.90;2.55;;;17.70;99.90;;;;;;5052404;28;20393;-78
2023/07/04 06:04:01;;;;;;;2.50;2.30;;;17.70;99.90;;;;;;5047235;28;20910;-78
2023/07/04 06:06:30;;;;;;;2.30;2.10;;;17.80;99.90;;;;;;5033291;28;20488;-78
2023/07/04 06:08:58;;;;;;;2.63;2.42;;;17.80;99.90;;;;;;5032416;28;20387;-79
2023/07/04 06:11:26;;;;;;;2.85;2.35;;;17.90;99.90;;;;;;5031622;28;20391;-78
2023/07/04 06:13:53;;;;;;;2.88;2.30;;;18.00;99.90;;;;;;5030648;28;20398;-78
2023/07/04 06:16:19;;;;;;;2.10;1.90;;;20.50;99.90;;;;;;5044736;28;20484;-78
2023/07/04 06:18:46;;;;;;;2.95;2.42;;;18.10;99.90;;;;;;5052150;28;20886;-78
2023/07/04 06:21:17;;;;;;;2.25;2.05;;;18.10;99.90;;;;;;5052129;28;20461;-78
2023/07/04 06:23:44;;;;;;;3.03;2.70;;;18.20;99.90;;;;;;5037239;28;20457;-78
2023/07/04 06:26:10;;;;;;;2.80;2.60;;;18.30;99.90;;;;;;5031499;28;20427;-78
2023/07/04 06:28:37;;;;;;;2.30;2.10;;;18.40;99.90;;;;;;5032906;28;20824;-78
2023/07/04 06:31:05;;;;;;;2.47;2.20;;;18.50;99.90;;;;;;5031886;28;20390;-78
2023/07/04 06:33:32;;;;;;;3.40;2.40;;;18.60;99.90;;;;;;5039644;28;20428;-79
2023/07/04 06:35:57;;;;;;;3.53;2.20;;;18.60;99.90;;;;;;5031178;28;20815;-79
2023/07/04 06:38:23;;;;;;;2.70;2.50;;;18.70;99.90;;;;;;5033022;28;20391;-79
2023/07/04 06:41:04;;;;;;;1.95;1.85;;;18.70;99.90;;;;;;5031503;28;20426;-77
2023/07/04 06:43:32;;;;;;;2.80;2.15;;;18.70;99.90;;;;;;5030459;28;20417;-77
2023/07/04 06:45:57;;;;;;;2.40;2.10;;;18.70;99.90;;;;;;5028489;28;20916;-77
2023/07/04 06:48:25;;;;;;;2.63;2.10;;;18.80;99.90;;;;;;5024821;28;20406;-77
2023/07/04 06:51:15;;;;;;;2.27;2.00;;;19.00;99.90;;;;;;5033340;28;20533;-78
2023/07/04 06:53:41;;;;;;;3.15;2.28;;;19.00;99.90;;;;;;5025838;28;20454;-82
2023/07/04 06:56:17;;;;;;;3.05;1.90;;;19.00;99.90;;;;;;5031093;28;20410;-80
2023/07/04 06:58:47;;;;;;;2.88;2.40;;;19.10;99.90;;;;;;5034681;28;20402;-80
2023/07/04 07:01:13;;;;;;;5.90;2.00;;;19.10;99.90;;;;;;5052877;28;20389;-81
2023/07/04 07:03:38;;;;;;;2.80;1.87;;;19.00;99.90;;;;;;5056315;28;20391;-81
2023/07/04 07:06:06;;;;;;;2.40;2.20;;;19.00;99.90;;;;;;5052686;28;20437;-82
2023/07/04 07:08:32;;;;;;;2.33;2.00;;;18.90;99.90;;;;;;5034992;28;20395;-81
2023/07/04 07:11:06;;;;;;;2.13;1.92;;;19.50;99.90;;;;;;5035920;28;20391;-82
2023/07/04 07:13:32;;;;;;;2.50;2.30;;;19.60;99.90;;;;;;5034552;28;20403;-81
2023/07/04 07:16:11;;;;;;;2.30;2.10;;;19.60;99.90;;;;;;5035077;28;20409;-81
2023/07/04 07:18:38;;;;;;;2.30;1.90;;;19.70;99.90;;;;;;5041205;28;20399;-81
2023/07/04 07:21:05;;;;;;;1.90;1.80;;;19.70;99.90;;;;;;5033691;28;20395;-80
2023/07/04 07:23:32;;;;;;;3.00;2.20;;;19.80;99.90;;;;;;5036131;28;20421;-81
2023/07/04 07:26:00;;;;;;;3.13;1.90;;;19.70;99.90;;;;;;5033208;28;20458;-81
2023/07/04 07:28:28;;;;;;;2.10;1.90;;;19.70;99.90;;;;;;5033538;28;20441;-80
2023/07/04 07:31:13;;;;;;;2.50;2.07;;;19.60;99.90;;;;;;5035235;28;20394;-81
2023/07/04 07:33:40;;;;;;;2.45;2.15;;;19.70;99.90;;;;;;5050990;28;20393;-82
2023/07/04 07:36:13;;;;;;;5.50;1.80;;;19.80;99.90;;;;;;5033751;28;20414;-80
2023/07/04 07:38:39;;;;;;;2.20;1.90;;;19.80;99.90;;;;;;5034437;28;20398;-82
2023/07/04 07:41:05;;;;;;;2.67;2.20;;;20.00;99.90;;;;;;5034537;28;20379;-79
2023/07/04 07:43:36;;;;;;;4.55;2.30;;;20.00;99.90;;;;;;5035990;28;20426;-79
2023/07/04 07:46:02;;;;;;;3.25;2.20;;;20.00;99.90;;;;;;5033594;28;20394;-81
2023/07/04 07:48:27;;;;;;;2.10;1.90;;;20.20;99.90;;;;;;5050017;28;20829;-80
2023/07/04 07:50:53;;;;;;;2.60;2.00;;;20.30;99.90;;;;;;5058205;28;20729;-80
2023/07/04 07:53:19;;;;;;;2.03;1.83;;;20.40;99.90;;;;;;5055645;28;20389;-81
2023/07/04 07:55:44;;;;;;;1.90;1.70;;;20.40;99.90;;;;;;5055774;28;20760;-81
2023/07/04 07:58:10;;;;;;;2.07;1.70;;;20.60;99.90;;;;;;5046481;28;20434;-80
2023/07/04 08:00:36;;;;;;;3.47;2.17;;;20.70;99.90;;;;;;5051798;28;20367;-82
2023/07/04 08:03:01;;;;;;;2.00;1.60;;;20.70;99.90;;;;;;5054666;28;20419;-81
2023/07/04 08:05:28;;;;;;;2.50;1.90;;;20.70;99.90;;;;;;5042792;28;20387;-80
2023/07/04 08:07:53;;;;;;;2.40;2.13;;;20.80;99.90;;;;;;5050314;28;20401;-80
2023/07/04 08:10:19;;;;;;;1.97;1.87;;;20.90;99.90;;;;;;5057189;28;20648;-80
2023/07/04 08:12:45;;;;;;;1.77;1.67;;;20.90;99.90;;;;;;5040011;28;20395;-82
2023/07/04 08:15:10;;;;;;;3.00;1.97;;;20.90;99.90;;;;;;5038986;28;20452;-80
2023/07/04 08:17:37;;;;;;;2.00;1.90;;;20.80;99.90;;;;;;5052360;28;20389;-80
2023/07/04 08:20:04;;;;;;;3.20;1.70;;;20.90;99.90;;;;;;5067486;22;20445;-82
2023/07/04 08:22:29;;;;;;;3.22;2.00;;;20.80;99.90;;;;;;5035913;28;20628;-80
2023/07/04 08:24:56;;;;;;;2.10;1.80;;;21.10;99.90;;;;;;5025235;28;20392;-80
2023/07/04 08:27:24;;;;;;;2.70;1.52;;;21.30;99.90;;;;;;5034758;28;20418;-81
2023/07/04 08:29:50;;;;;;;1.90;1.70;;;21.60;99.90;;;;;;5035030;28;20966;-82
2023/07/04 08:32:16;;;;;;;2.00;1.80;;;21.40;99.90;;;;;;5034906;28;20433;-81
2023/07/04 08:34:42;;;;;;;1.92;1.60;;;22.60;99.90;;;;;;5034746;28;20387;-82
2023/07/04 08:37:08;;;;;;;2.40;1.70;;;20.50;99.90;;;;;;5037333;28;20417;-81
2023/07/04 08:39:34;;;;;;;2.20;1.97;;;22.90;99.90;;;;;;5034652;28;20396;-82
2023/07/04 08:42:02;;;;;;;2.60;2.03;;;21.30;99.90;;;;;;5034592;28;20396;-81
2023/07/04 08:44:31;;;;;;;2.20;1.80;;;21.50;99.90;;;;;;5036953;28;20383;-83
2023/07/04 08:46:58;;;;;;;2.95;2.00;;;21.70;99.90;;;;;;5037131;28;20383;-82
2023/07/04 08:49:35;;;;;;;2.30;1.85;;;21.90;99.90;;;;;;5034118;28;20422;-81
2023/07/04 08:52:25;;;;;;;2.00;1.80;;;21.80;99.90;;;;;;5035134;28;20398;-82
2023/07/04 08:54:52;;;;;;;4.30;2.33;;;21.60;99.90;;;;;;5034884;28;20441;-82
2023/07/04 08:57:20;;;;;;;4.10;2.08;;;21.60;99.90;;;;;;5042493;28;20394;-82
2023/07/04 08:59:49;;;;;;;2.70;1.75;;;21.70;99.90;;;;;;5055895;28;20419;-80
2023/07/04 09:02:26;;;;;;;2.60;1.90;;;21.60;99.90;;;;;;5057053;28;20387;-80
2023/07/04 09:05:29;;;;;;;2.00;1.70;;;21.40;99.90;;;;;;5037827;28;20540;-83
2023/07/04 09:08:12;;;;;;;2.10;1.90;;;21.40;99.90;;;;;;5036895;28;20390;-83
2023/07/04 09:10:41;;;;;;;1.70;1.60;;;21.60;99.90;;;;;;5036639;28;20395;-82
2023/07/04 09:13:12;;;;;;;2.10;1.90;;;21.60;99.90;;;;;;5033900;28;20399;-82
2023/07/04 09:15:45;;;;;;;3.10;1.80;;;21.90;99.90;;;;;;5034315;28;20439;-80
2023/07/04 09:18:31;;;;;;;3.08;2.20;;;21.90;99.90;;;;;;5035221;28;20395;-80
2023/07/04 09:21:10;;;;;;;4.07;2.30;;;22.00;99.90;;;;;;5035427;28;20474;-80
2023/07/04 09:23:36;;;;;;;3.22;2.22;;;22.20;99.90;;;;;;5034312;28;20394;-80
2023/07/04 09:26:02;;;;;;;1.70;1.60;;;22.20;99.90;;;;;;5034238;28;20403;-81
2023/07/04 09:28:29;;;;;;;1.98;1.70;;;22.40;99.90;;;;;;5033401;28;20418;-81
2023/07/04 09:30:58;;;;;;;3.53;1.90;;;22.50;99.90;;;;;;5034728;28;20394;-81
2023/07/04 09:33:27;;;;;;;2.60;2.03;;;22.60;99.90;;;;;;5035055;28;20411;-81
2023/07/04 09:35:54;;;;;;;2.90;2.00;;;22.40;99.90;;;;;;5038609;28;20880;-80
2023/07/04 09:38:20;;;;;;;2.75;2.00;;;22.30;99.90;;;;;;5036273;28;20395;-81
2023/07/04 09:40:54;;;;;;;2.80;1.90;;;22.30;99.90;;;;;;5035908;28;20428;-81
2023/07/04 09:43:30;;;;;;;3.40;2.28;;;22.40;99.90;;;;;;5033252;28;20901;-83
2023/07/04 09:46:17;;;;;;;3.83;1.92;;;22.30;99.90;;;;;;5037907;28;20406;-82
2023/07/04 09:48:43;;;;;;;2.58;2.00;;;22.50;99.90;;;;;;5039351;28;20873;-82
2023/07/04 09:51:28;;;;;;;2.60;1.77;;;22.60;99.90;;;;;;5041019;28;20386;-83
2023/07/04 09:54:14;;;;;;;3.45;1.80;;;22.60;99.90;;;;;;5040466;28;20488;-82
2023/07/04 09:56:41;;;;;;;2.00;1.80;;;22.50;99.90;;;;;;5045883;28;20490;-83
2023/07/04 09:59:24;;;;;;;2.17;1.52;;;22.50;99.90;;;;;;5036770;28;20387;-82
2023/07/04 10:01:52;;;;;;;3.00;1.88;;;22.60;99.90;;;;;;5033806;28;20387;-83
2023/07/04 10:04:33;;;;;;;2.42;1.80;;;22.60;99.90;;;;;;5033778;28;20395;-82
2023/07/04 10:06:59;;;;;;;1.67;1.50;;;24.00;99.90;;;;;;5034037;28;21012;-81
2023/07/04 10:09:26;;;;;;;1.63;1.52;;;23.00;99.90;;;;;;5033799;28;20410;-83
2023/07/04 10:12:08;;;;;;;2.30;1.50;;;23.50;99.90;;;;;;5033919;28;20400;-83
2023/07/04 10:14:37;;;;;;;3.40;1.50;;;23.00;99.90;;;;;;5035618;28;20384;-83
2023/07/04 10:17:14;;;;;;;1.92;1.20;;;22.10;99.90;;;;;;5032299;28;20403;-83
2023/07/04 10:19:43;;;;;;;1.98;1.77;;;22.60;99.90;;;;;;5036064;28;20395;-84
2023/07/04 10:22:08;;;;;;;1.90;1.70;;;23.30;99.90;;;;;;5035611;28;20961;-83
2023/07/04 10:24:35;;;;;;;1.80;1.45;;;22.90;99.90;;;;;;5038336;28;20484;-83
2023/07/04 10:27:11;;;;;;;1.88;1.50;;;22.50;99.90;;;;;;5034877;28;20895;-83
2023/07/04 10:29:46;;;;;;;1.55;1.30;;;22.60;99.90;;;;;;5032785;28;20425;-83
2023/07/04 10:32:16;;;;;;;1.40;0.93;;;22.70;99.90;;;;;;5032854;28;20485;-82
2023/07/04 10:34:46;;;;;;;1.20;1.00;;;22.70;99.90;;;;;;5035645;28;20417;-82
2023/07/04 10:37:36;;;;;;;1.40;1.30;;;22.80;99.90;;;;;;5037301;28;20777;-81
2023/07/04 10:40:05;;;;;;;2.30;1.30;;;23.30;99.90;;;;;;5040965;28;20885;-83
2023/07/04 10:42:43;;;;;;;2.22;1.40;;;23.30;99.90;;;;;;5038449;28;20397;-83
2023/07/04 10:45:14;;;;;;;1.50;1.27;;;23.20;99.90;;;;;;5037964;28;20394;-82
2023/07/04 10:47:41;;;;;;;1.73;1.30;;;24.60;99.90;;;;;;5037514;28;20387;-82
2023/07/04 10:50:16;;;;;;;1.50;1.20;;;23.50;99.90;;;;;;5039792;28;20387;-82
2023/07/04 10:52:46;;;;;;;1.85;1.13;;;23.60;99.90;;;;;;5039046;28;20378;-81
2023/07/04 10:55:20;;;;;;;1.40;1.10;;;23.70;99.90;;;;;;5038139;28;20375;-83
2023/07/04 10:57:56;;;;;;;1.60;1.10;;;23.90;99.90;;;;;;5038991;28;20399;-83
2023/07/04 11:00:51;;;;;;;1.90;1.00;;;23.80;99.90;;;;;;5039242;28;20394;-81
2023/07/04 11:03:24;;;;;;;1.27;1.00;;;23.70;99.90;;;;;;5038419;28;20394;-82
2023/07/04 11:05:53;;;;;;;1.20;1.10;;;23.70;99.90;;;;;;5037706;28;20474;-84
2023/07/04 11:08:22;;;;;;;1.23;1.10;;;23.70;99.90;;;;;;5038628;28;20423;-83
2023/07/04 11:10:51;;;;;;;1.00;0.80;;;23.70;99.90;;;;;;5040357;28;21067;-83
2023/07/04 11:13:19;;;;;;;1.10;0.90;;;24.00;99.90;;;;;;5038073;28;20404;-83
2023/07/04 11:15:53;;;;;;;2.25;1.23;;;24.10;99.90;;;;;;5039987;28;20463;-83
2023/07/04 11:18:25;;;;;;;1.90;1.30;;;25.10;99.90;;;;;;5018942;28;20499;-84
2023/07/04 11:20:54;;;;;;;1.55;1.08;;;24.20;99.90;;;;;;5017220;28;20464;-85
2023/07/04 11:23:22;;;;;;;2.10;1.30;;;24.20;99.90;;;;;;5019384;28;20480;-83
2023/07/04 11:26:05;;;;;;;1.50;1.40;;;23.80;99.90;;;;;;5038253;28;20399;-84
2023/07/04 11:28:36;;;;;;;1.33;1.08;;;23.60;99.90;;;;;;5040080;28;20405;-84
2023/07/04 11:31:21;;;;;;;2.03;1.80;;;24.20;99.90;;;;;;5040435;28;20391;-83
2023/07/04 11:33:53;;;;;;;1.60;1.30;;;25.00;99.90;;;;;;5040063;28;20407;-83
2023/07/04 11:36:30;;;;;;;2.30;1.40;;;24.80;99.90;;;;;;5037943;28;20820;-84
2023/07/04 11:39:03;;;;;;;1.38;1.20;;;24.50;99.90;;;;;;5039583;28;20482;-83
2023/07/04 11:41:39;;;;;;;1.70;1.10;;;23.90;99.90;;;;;;5036474;28;20388;-84
2023/07/04 11:44:29;;;;;;;1.50;1.40;;;24.50;99.90;;;;;;5036434;28;20468;-84
2023/07/04 11:47:07;;;;;;;2.30;1.40;;;24.90;99.90;;;;;;5035166;28;20877;-84
2023/07/04 11:49:34;;;;;;;1.30;1.20;;;25.80;99.90;;;;;;5039714;28;20413;-86
2023/07/04 11:52:23;;;;;;;2.30;1.60;;;25.40;99.90;;;;;;5058226;28;20482;-85
2023/07/04 11:55:01;;;;;;;1.60;1.30;;;25.40;99.90;;;;;;5058515;28;20394;-85
2023/07/04 11:58:00;;;;;;;2.70;1.20;;;25.20;99.90;;;;;;5054444;28;20407;-85
2023/07/04 12:00:30;;;;;;;2.00;1.20;;;25.70;99.90;;;;;;5041452;28;20387;-85
2023/07/04 12:02:56;;;;;;;1.80;1.20;;;26.50;99.90;;;;;;5041701;28;20449;-84
2023/07/04 12:05:30;;;;;;;2.15;1.00;;;27.20;99.90;;;;;;5043430;28;20470;-83
2023/07/04 12:08:01;;;;;;;1.60;1.23;;;27.80;99.90;;;;;;5043271;28;20391;-83
2023/07/04 12:10:28;;;;;;;2.65;1.90;;;28.20;99.90;;;;;;5036564;28;20379;-84
2023/07/04 12:13:06;;;;;;;1.30;1.20;;;28.20;99.90;;;;;;5038927;28;20917;-83
2023/07/04 12:15:34;;;;;;;1.30;1.20;;;27.60;99.90;;;;;;5044807;28;20474;-83
2023/07/04 12:18:12;;;;;;;1.30;1.20;;;27.10;99.90;;;;;;5044979;28;20391;-84
2023/07/04 12:20:39;;;;;;;1.48;1.38;;;26.20;99.90;;;;;;5050244;28;20399;-83
2023/07/04 12:23:09;;;;;;;1.20;1.10;;;26.20;99.90;;;;;;5040800;28;20390;-84
2023/07/04 12:25:39;;;;;;;2.80;2.00;;;26.50;99.90;;;;;;5036480;28;20403;-84
2023/07/04 12:28:05;;;;;;;1.80;1.17;;;25.80;99.90;;;;;;5037800;28;20461;-84
2023/07/04 12:30:32;;;;;;;1.40;1.30;;;25.40;99.90;;;;;;5040109;28;20391;-84
2023/07/04 12:32:57;;;;;;;1.35;1.25;;;25.90;99.90;;;;;;5040326;28;20454;-83
2023/07/04 12:35:26;;;;;;;1.90;1.30;;;25.50;99.90;;;;;;5019086;28;20871;-83
2023/07/04 12:37:55;;;;;;;1.93;1.10;;;25.30;99.90;;;;;;5019879;28;20403;-83
2023/07/04 12:40:24;;;;;;;1.17;1.00;;;24.70;99.90;;;;;;5039000;28;20391;-84
2023/07/04 12:42:51;;;;;;;1.53;1.20;;;25.60;99.90;;;;;;5037771;28;20391;-83
2023/07/04 12:45:24;;;;;;;1.20;1.10;;;25.40;99.90;;;;;;5017877;28;20750;-83
2023/07/04 12:47:53;;;;;;;1.63;1.38;;;26.00;99.90;;;;;;5019210;28;20392;-83
2023/07/04 12:50:20;;;;;;;1.70;1.25;;;26.50;99.90;;;;;;5029298;22;20431;-83
2023/07/04 12:52:55;;;;;;;1.50;0.93;;;26.60;99.90;;;;;;5037120;28;20951;-84
2023/07/04 12:55:26;;;;;;;1.00;0.90;;;26.60;99.90;;;;;;5036152;28;20415;-83
2023/07/04 12:57:52;;;;;;;1.20;1.10;;;26.30;99.90;;;;;;5038112;28;20395;-84
2023/07/04 13:00:43;;;;;;;2.07;1.20;;;27.00;99.90;;;;;;5037641;28;20486;-83